Terminal Aerodrome Forecast
Issued by NWS

Home | Current Version | Previous Version | Text Only | Print | Product List | Glossary On
Versions: 1 2 3 4 5 6 7 8 9 10 11 12 13 14
000
FTUS43 KGRR 212335
TAFJXN
TAF
KJXN 212335Z 2200/2224 26004KT P6SM BKN150 BKN250
     FM220400 00000KT P6SM OVC050
     FM220900 15002KT P6SM -RA OVC050
     FM221200 13003KT 4SM -RA BR OVC025
     FM221400 18005KT P6SM OVC015
     FM222100 07004KT P6SM BKN040=

USA.gov is the U.S. government's official web portal to all federal, state and local government web resources and services.